createdAt,value
2017-09-28T00:02:02.463Z,91.94
2017-09-28T00:04:28.687Z,91.66
2017-09-28T00:06:54.904Z,91.63
2017-09-28T00:09:21.150Z,91.51
2017-09-28T00:11:47.357Z,91.37
2017-09-28T00:14:13.601Z,91.59
2017-09-28T00:16:39.839Z,91.75
2017-09-28T00:19:06.060Z,91.45
2017-09-28T00:21:32.291Z,91.39
2017-09-28T00:23:58.524Z,91.67
2017-09-28T00:26:24.749Z,91.73
2017-09-28T00:28:50.987Z,91.79
2017-09-28T00:31:17.160Z,91.94
2017-09-28T00:33:43.354Z,92.11
2017-09-28T00:36:09.562Z,91.79
2017-09-28T00:38:35.792Z,91.72
2017-09-28T00:41:02.026Z,91.44
2017-09-28T00:43:28.267Z,90.83
2017-09-28T00:45:54.472Z,90.77
2017-09-28T00:48:20.743Z,90.56
2017-09-28T00:50:46.939Z,90.38
2017-09-28T00:53:13.175Z,90.33
2017-09-28T00:55:39.402Z,90.31
2017-09-28T00:58:05.643Z,90.00
2017-09-28T01:00:31.800Z,89.34
2017-09-28T01:02:57.979Z,89.34
2017-09-28T01:05:24.206Z,89.42
2017-09-28T01:07:50.444Z,89.69
2017-09-28T01:10:16.672Z,90.25
2017-09-28T01:12:42.928Z,90.81
2017-09-28T01:15:09.131Z,91.07
2017-09-28T01:17:35.369Z,90.95
2017-09-28T01:20:01.618Z,90.95
2017-09-28T01:22:27.836Z,91.07
2017-09-28T01:24:54.046Z,90.87
2017-09-28T01:27:20.291Z,90.56
2017-09-28T01:29:46.517Z,90.30
2017-09-28T01:32:12.761Z,90.27
2017-09-28T01:34:38.972Z,90.24
2017-09-28T01:37:05.205Z,90.14
2017-09-28T01:39:31.427Z,89.83
2017-09-28T01:41:57.672Z,89.80
2017-09-28T01:44:23.822Z,89.70
2017-09-28T01:46:50.006Z,90.13
2017-09-28T01:49:16.261Z,90.34
2017-09-28T01:51:42.426Z,90.54
2017-09-28T01:54:08.609Z,90.56
2017-09-28T01:56:34.844Z,90.51
2017-09-28T01:59:01.084Z,90.64
2017-09-28T02:01:27.249Z,90.39
2017-09-28T02:03:53.430Z,90.30
2017-09-28T02:06:19.652Z,90.25
2017-09-28T02:08:45.887Z,90.14
2017-09-28T02:11:12.121Z,90.04
2017-09-28T02:13:38.355Z,89.97
2017-09-28T02:16:04.582Z,89.69
2017-09-28T02:18:30.786Z,89.53
2017-09-28T02:20:57.037Z,89.38
2017-09-28T02:23:23.263Z,88.86
2017-09-28T02:25:49.501Z,88.85
2017-09-28T02:28:15.719Z,89.50
2017-09-28T02:30:41.942Z,89.63
2017-09-28T02:33:08.185Z,89.69
2017-09-28T02:35:34.401Z,89.96
2017-09-28T02:38:00.636Z,90.11
2017-09-28T02:40:26.893Z,90.64
2017-09-28T02:42:53.077Z,90.43
2017-09-28T02:45:19.323Z,90.63
2017-09-28T02:47:45.558Z,90.72
2017-09-28T02:50:11.792Z,91.02
2017-09-28T02:52:38.017Z,90.82
2017-09-28T02:55:04.234Z,90.20
2017-09-28T02:57:30.471Z,89.71
2017-09-28T02:59:56.702Z,88.96
2017-09-28T03:02:22.937Z,89.30
2017-09-28T03:04:49.244Z,89.36
2017-09-28T03:07:15.494Z,89.82
2017-09-28T03:09:41.723Z,90.58
2017-09-28T03:12:07.963Z,90.87
2017-09-28T03:14:34.197Z,90.90
2017-09-28T03:17:00.411Z,90.89
2017-09-28T03:19:26.638Z,91.43
2017-09-28T03:21:52.869Z,91.36
2017-09-28T03:24:19.101Z,91.47
2017-09-28T03:26:45.299Z,91.15
2017-09-28T03:29:11.457Z,90.38
2017-09-28T03:31:37.689Z,89.18
2017-09-28T03:34:03.931Z,88.10
2017-09-28T03:36:30.160Z,87.22
2017-09-28T03:38:56.389Z,86.18
2017-09-28T03:41:22.621Z,86.48
2017-09-28T03:43:48.845Z,86.48
2017-09-28T03:46:15.067Z,86.02
2017-09-28T03:48:41.308Z,85.86
2017-09-28T03:51:07.533Z,86.25
2017-09-28T03:53:33.749Z,85.55
2017-09-28T03:55:59.996Z,85.31
2017-09-28T03:58:26.215Z,83.93
2017-09-28T04:00:52.459Z,84.07
2017-09-28T04:03:18.677Z,84.51
2017-09-28T04:05:44.901Z,86.01
2017-09-28T04:08:11.139Z,85.07
2017-09-28T04:10:37.369Z,85.60
2017-09-28T04:13:03.605Z,85.28
2017-09-28T04:15:29.833Z,83.18
2017-09-28T04:17:56.078Z,84.62
2017-09-28T04:20:22.325Z,83.61
2017-09-28T04:22:48.523Z,85.66
2017-09-28T04:25:14.764Z,86.32
2017-09-28T04:27:40.967Z,85.98
2017-09-28T04:30:07.218Z,87.42
2017-09-28T04:32:33.442Z,86.57
2017-09-28T04:34:59.666Z,86.40
2017-09-28T04:37:25.927Z,86.54
2017-09-28T04:39:52.133Z,85.84
2017-09-28T04:42:18.344Z,86.52
2017-09-28T04:44:44.599Z,87.28
2017-09-28T04:47:10.827Z,85.27
2017-09-28T04:49:37.048Z,84.05
2017-09-28T04:52:03.266Z,84.77
2017-09-28T04:54:29.497Z,81.99
2017-09-28T04:56:55.741Z,86.66
2017-09-28T04:59:21.959Z,84.10
2017-09-28T05:01:48.209Z,83.58
2017-09-28T05:04:14.426Z,83.72
2017-09-28T05:06:40.664Z,83.82
2017-09-28T05:09:06.884Z,79.68
2017-09-28T05:11:33.046Z,81.98
2017-09-28T05:13:59.222Z,82.26
2017-09-28T05:16:25.459Z,82.39
2017-09-28T05:18:51.710Z,84.05
2017-09-28T05:21:17.940Z,81.63
2017-09-28T05:23:44.154Z,83.60
2017-09-28T05:26:10.386Z,84.80
2017-09-28T05:28:36.616Z,84.94
2017-09-28T05:31:02.855Z,85.02
2017-09-28T05:33:29.085Z,78.56
2017-09-28T05:35:55.296Z,81.33
2017-09-28T05:38:21.536Z,79.58
2017-09-28T05:40:47.778Z,80.37
2017-09-28T05:43:14.009Z,78.66
2017-09-28T05:45:40.231Z,79.01
2017-09-28T05:48:06.453Z,76.83
2017-09-28T05:50:32.623Z,79.01
2017-09-28T05:52:58.833Z,80.49
2017-09-28T05:55:25.035Z,81.04
2017-09-28T05:57:51.198Z,81.24
2017-09-28T06:00:17.593Z,80.00
2017-09-28T06:02:43.817Z,78.88
2017-09-28T06:05:10.058Z,77.94
2017-09-28T06:07:36.307Z,75.09
2017-09-28T06:10:02.530Z,73.49
2017-09-28T06:12:28.756Z,76.06
2017-09-28T06:14:54.991Z,75.98
2017-09-28T06:17:21.221Z,79.82
2017-09-28T06:19:47.449Z,77.10
2017-09-28T06:22:13.676Z,73.89
2017-09-28T06:24:39.929Z,74.33
2017-09-28T06:27:06.133Z,75.88
2017-09-28T06:29:32.364Z,73.99
2017-09-28T06:31:58.600Z,76.55
2017-09-28T06:34:24.830Z,74.16
2017-09-28T06:36:51.064Z,76.65
2017-09-28T06:39:17.310Z,76.47
2017-09-28T06:41:43.525Z,73.78
2017-09-28T06:44:09.754Z,71.92
2017-09-28T06:46:35.981Z,74.01
2017-09-28T06:49:02.215Z,73.18
2017-09-28T06:51:28.426Z,73.61
2017-09-28T06:53:54.666Z,75.04
2017-09-28T06:56:20.893Z,73.84
2017-09-28T06:58:47.105Z,74.47
2017-09-28T07:01:13.360Z,72.77
2017-09-28T07:03:39.601Z,71.96
2017-09-28T07:06:05.792Z,71.72
2017-09-28T07:08:32.046Z,70.33
2017-09-28T07:10:58.272Z,68.75
2017-09-28T07:13:24.500Z,70.79
2017-09-28T07:15:50.662Z,71.16
2017-09-28T07:18:16.871Z,71.19
2017-09-28T07:20:43.075Z,69.65
2017-09-28T07:23:09.313Z,70.77
2017-09-28T07:25:35.464Z,69.13
2017-09-28T07:28:01.700Z,71.08
2017-09-28T07:30:27.908Z,70.60
2017-09-28T07:32:54.138Z,73.40
2017-09-28T07:35:20.364Z,70.92
2017-09-28T07:37:46.591Z,71.21
2017-09-28T07:40:12.826Z,71.15
2017-09-28T07:42:39.051Z,71.97
2017-09-28T07:45:05.294Z,71.33
2017-09-28T07:47:31.515Z,72.81
2017-09-28T07:49:57.746Z,73.66
2017-09-28T07:52:23.988Z,74.71
2017-09-28T07:54:50.210Z,75.17
2017-09-28T07:57:16.455Z,73.87
2017-09-28T07:59:42.680Z,74.15
2017-09-28T08:02:08.877Z,75.30
2017-09-28T08:04:35.131Z,73.57
2017-09-28T08:07:01.344Z,74.49
2017-09-28T08:09:27.574Z,72.82
2017-09-28T08:11:53.819Z,74.07
2017-09-28T08:14:20.046Z,73.47
2017-09-28T08:16:46.279Z,74.41
2017-09-28T08:19:12.495Z,74.81
2017-09-28T08:21:38.668Z,73.31
2017-09-28T08:24:04.826Z,74.61
2017-09-28T08:26:31.005Z,73.47
2017-09-28T08:28:57.158Z,74.48
2017-09-28T08:31:23.307Z,77.98
2017-09-28T08:33:49.589Z,75.85
2017-09-28T08:36:15.795Z,76.49
2017-09-28T08:38:41.972Z,75.84
2017-09-28T08:41:08.167Z,74.28
2017-09-28T08:43:34.389Z,74.62
2017-09-28T08:46:00.707Z,74.44
2017-09-28T08:48:26.960Z,73.57
2017-09-28T08:50:53.164Z,74.15
2017-09-28T08:53:19.313Z,76.29
2017-09-28T08:55:45.519Z,74.38
2017-09-28T08:58:11.775Z,73.15
2017-09-28T09:00:37.986Z,74.07
2017-09-28T09:03:04.225Z,73.86
2017-09-28T09:05:30.451Z,73.30
2017-09-28T09:07:56.671Z,72.98
2017-09-28T09:10:22.926Z,72.03
2017-09-28T09:12:49.128Z,71.49
2017-09-28T09:15:15.358Z,71.84
2017-09-28T09:17:41.591Z,71.85
2017-09-28T09:20:07.888Z,71.33
2017-09-28T09:22:34.156Z,71.95
2017-09-28T09:25:00.381Z,71.38
2017-09-28T09:27:26.619Z,74.60
2017-09-28T09:29:52.844Z,73.60
2017-09-28T09:32:19.079Z,73.52
2017-09-28T09:34:45.234Z,74.06
2017-09-28T09:37:11.415Z,73.80
2017-09-28T09:39:37.681Z,72.96
2017-09-28T09:42:03.882Z,71.14
2017-09-28T09:44:30.135Z,70.71
2017-09-28T09:46:56.374Z,71.08
2017-09-28T09:49:22.595Z,70.26
2017-09-28T09:51:48.745Z,71.03
2017-09-28T09:54:14.940Z,70.64
2017-09-28T09:56:41.184Z,71.71
2017-09-28T09:59:07.402Z,69.32
2017-09-28T10:01:33.609Z,69.34
2017-09-28T10:03:59.869Z,68.11
2017-09-28T10:06:26.105Z,69.45
2017-09-28T10:08:52.344Z,69.23
2017-09-28T10:11:18.558Z,67.56
2017-09-28T10:13:44.798Z,65.99
2017-09-28T10:16:11.049Z,66.88
2017-09-28T10:18:37.227Z,66.04
2017-09-28T10:21:03.491Z,65.16
2017-09-28T10:23:29.744Z,67.39
2017-09-28T10:25:55.951Z,66.66
2017-09-28T10:28:22.192Z,66.19
2017-09-28T10:30:48.406Z,65.95
2017-09-28T10:33:14.625Z,66.59
2017-09-28T10:35:40.849Z,66.19
2017-09-28T10:38:07.121Z,65.39
2017-09-28T10:40:33.312Z,64.56
2017-09-28T10:42:59.525Z,65.64
2017-09-28T10:45:25.810Z,65.67
2017-09-28T10:47:51.993Z,63.88
2017-09-28T10:50:18.150Z,64.36
2017-09-28T10:52:44.388Z,64.01
2017-09-28T10:55:10.586Z,64.15
2017-09-28T10:57:36.805Z,64.02
2017-09-28T11:00:02.984Z,63.48
2017-09-28T11:02:29.205Z,64.64
2017-09-28T11:04:55.401Z,61.48
2017-09-28T11:07:21.646Z,61.22
2017-09-28T11:09:47.876Z,59.42
2017-09-28T11:12:14.103Z,58.83
2017-09-28T11:14:40.323Z,59.62
2017-09-28T11:17:06.544Z,59.01
2017-09-28T11:19:32.772Z,58.71
2017-09-28T11:21:59.014Z,58.07
2017-09-28T11:24:25.252Z,58.65
2017-09-28T11:26:51.466Z,60.84
2017-09-28T11:29:17.691Z,59.03
2017-09-28T11:31:51.576Z,57.08
2017-09-28T11:34:17.858Z,58.50
2017-09-28T11:36:44.073Z,53.93
2017-09-28T11:39:10.304Z,52.84
2017-09-28T11:41:36.530Z,51.16
2017-09-28T11:44:02.754Z,51.05
2017-09-28T11:46:28.994Z,51.66
2017-09-28T11:48:55.216Z,51.35
2017-09-28T11:51:21.456Z,52.12
2017-09-28T11:53:47.690Z,54.48
2017-09-28T11:56:13.892Z,50.71
2017-09-28T11:58:40.120Z,49.51
2017-09-28T12:01:06.364Z,48.32
2017-09-28T12:03:32.590Z,45.45
2017-09-28T12:05:58.850Z,45.03
2017-09-28T12:08:25.063Z,44.84
2017-09-28T12:10:51.276Z,43.57
2017-09-28T12:13:17.530Z,49.45
2017-09-28T12:15:43.742Z,45.72
2017-09-28T12:18:09.997Z,48.07
2017-09-28T12:20:36.196Z,50.99
2017-09-28T12:23:02.435Z,52.68
2017-09-28T12:25:28.591Z,53.39
2017-09-28T12:27:54.750Z,54.31
2017-09-28T12:30:20.948Z,55.11
2017-09-28T12:32:47.121Z,54.35
2017-09-28T12:35:13.310Z,53.44
2017-09-28T12:37:39.466Z,54.93
2017-09-28T12:40:05.630Z,55.03
2017-09-28T12:42:31.789Z,55.23
2017-09-28T12:44:57.944Z,55.05
2017-09-28T12:47:24.121Z,55.52
2017-09-28T12:49:50.288Z,53.88
2017-09-28T12:52:16.455Z,54.57
2017-09-28T12:54:42.616Z,53.88
2017-09-28T12:57:08.783Z,53.27
2017-09-28T12:59:34.923Z,52.94
2017-09-28T13:02:01.080Z,54.21
2017-09-28T13:04:27.231Z,51.81
2017-09-28T13:06:53.379Z,53.45
2017-09-28T13:09:19.540Z,54.36
2017-09-28T13:11:45.709Z,54.39
2017-09-28T13:14:11.921Z,54.63
2017-09-28T13:16:38.156Z,55.08
2017-09-28T13:19:04.389Z,53.76
2017-09-28T13:21:30.599Z,53.81
2017-09-28T13:23:56.837Z,54.37
2017-09-28T13:26:23.058Z,55.12
2017-09-28T13:28:49.311Z,54.04
2017-09-28T13:31:15.522Z,54.28
2017-09-28T13:33:41.780Z,55.75
2017-09-28T13:36:07.982Z,54.78
2017-09-28T13:38:34.235Z,54.82
2017-09-28T13:41:00.463Z,54.63
2017-09-28T13:43:26.609Z,53.88
2017-09-28T13:45:52.813Z,54.91
2017-09-28T13:48:19.049Z,54.98
2017-09-28T13:50:49.536Z,52.60
2017-09-28T13:53:15.793Z,53.31
2017-09-28T13:55:42.030Z,53.07
2017-09-28T13:58:08.247Z,54.27
2017-09-28T14:00:34.411Z,54.02
2017-09-28T14:03:00.634Z,55.67
2017-09-28T14:05:26.866Z,55.80
2017-09-28T14:07:53.086Z,56.32
2017-09-28T14:10:19.314Z,57.23
2017-09-28T14:12:45.531Z,58.99
2017-09-28T14:15:11.811Z,58.12
2017-09-28T14:17:38.005Z,58.80
2017-09-28T14:20:04.254Z,59.74
2017-09-28T14:22:30.457Z,59.43
2017-09-28T14:24:56.710Z,60.00
2017-09-28T14:27:22.897Z,59.50
2017-09-28T14:29:49.152Z,60.57
2017-09-28T14:32:15.390Z,60.24
2017-09-28T14:34:41.605Z,60.58
2017-09-28T14:37:07.832Z,58.82
2017-09-28T14:39:34.079Z,59.27
2017-09-28T14:42:00.302Z,61.04
2017-09-28T14:44:26.571Z,59.01
2017-09-28T14:46:52.763Z,59.35
2017-09-28T14:49:18.990Z,60.45
2017-09-28T14:51:45.158Z,62.60
2017-09-28T14:54:11.362Z,62.39
2017-09-28T14:56:37.575Z,60.96
2017-09-28T14:59:03.821Z,62.15
2017-09-28T15:01:30.033Z,63.77
2017-09-28T15:03:56.272Z,61.47
2017-09-28T15:06:22.512Z,61.70
2017-09-28T15:08:48.730Z,63.57
2017-09-28T15:11:14.958Z,59.75
2017-09-28T15:13:41.197Z,63.05
2017-09-28T15:16:07.428Z,63.78
2017-09-28T15:18:33.652Z,65.01
2017-09-28T15:20:59.888Z,61.94
2017-09-28T15:23:26.109Z,62.72
2017-09-28T15:25:52.347Z,62.73
2017-09-28T15:28:18.586Z,62.86
2017-09-28T15:30:44.796Z,63.38
2017-09-28T15:33:11.025Z,63.70
2017-09-28T15:35:37.248Z,63.65
2017-09-28T15:38:03.502Z,64.32
2017-09-28T15:40:29.708Z,64.48
2017-09-28T15:42:55.873Z,64.83
2017-09-28T15:45:22.064Z,64.80
2017-09-28T15:47:48.316Z,65.69
2017-09-28T15:50:14.526Z,65.35
2017-09-28T15:52:40.754Z,65.84
2017-09-28T15:55:06.987Z,67.47
2017-09-28T15:57:33.152Z,66.82
2017-09-28T15:59:59.346Z,67.41
2017-09-28T16:02:25.558Z,66.95
2017-09-28T16:04:51.795Z,65.94
2017-09-28T16:07:17.981Z,66.34
2017-09-28T16:09:44.144Z,65.99
2017-09-28T16:12:10.317Z,66.36
2017-09-28T16:14:36.488Z,66.78
2017-09-28T16:17:02.665Z,67.06
2017-09-28T16:19:28.846Z,66.82
2017-09-28T16:21:55.016Z,67.20
2017-09-28T16:24:21.200Z,67.79
2017-09-28T16:26:47.375Z,67.99
2017-09-28T16:29:13.548Z,68.36
2017-09-28T16:31:39.723Z,68.42
2017-09-28T16:34:05.919Z,69.68
2017-09-28T16:36:32.117Z,69.60
2017-09-28T16:38:58.276Z,69.13
2017-09-28T16:41:24.436Z,71.03
2017-09-28T16:43:50.628Z,74.62
2017-09-28T16:46:16.812Z,76.57
2017-09-28T16:48:42.983Z,77.31
2017-09-28T16:51:09.157Z,77.44
2017-09-28T16:53:35.324Z,77.66
2017-09-28T16:56:01.513Z,78.08
2017-09-28T16:58:27.689Z,78.50
2017-09-28T17:00:53.890Z,78.22
2017-09-28T17:03:20.102Z,77.79
2017-09-28T17:05:46.349Z,76.96
2017-09-28T17:08:12.628Z,76.45
2017-09-28T17:10:38.880Z,74.42
2017-09-28T17:13:05.107Z,75.67
2017-09-28T17:15:31.341Z,75.06
2017-09-28T17:17:57.557Z,75.17
2017-09-28T17:20:23.804Z,74.82
2017-09-28T17:22:50.039Z,74.87
2017-09-28T17:25:16.258Z,74.80
2017-09-28T17:27:43.405Z,73.73
2017-09-28T17:30:09.632Z,72.47
2017-09-28T17:32:35.922Z,72.59
2017-09-28T17:35:02.207Z,73.38
2017-09-28T17:37:28.439Z,73.95
2017-09-28T17:39:54.644Z,72.57
2017-09-28T17:42:20.895Z,72.64
2017-09-28T17:44:47.135Z,72.24
2017-09-28T17:47:13.393Z,72.48
2017-09-28T17:49:39.570Z,72.35
2017-09-28T17:52:05.815Z,72.22
2017-09-28T17:54:32.064Z,71.78
2017-09-28T17:56:58.288Z,71.31
2017-09-28T17:59:24.499Z,76.46
2017-09-28T18:01:50.755Z,78.14
2017-09-28T18:04:16.944Z,78.20
2017-09-28T18:06:43.236Z,78.72
2017-09-28T18:09:09.428Z,78.59
2017-09-28T18:11:35.641Z,78.96
2017-09-28T18:14:01.980Z,79.06
2017-09-28T18:16:28.212Z,80.06
2017-09-28T18:18:54.439Z,81.12
2017-09-28T18:21:20.696Z,81.95
2017-09-28T18:23:46.907Z,80.96
2017-09-28T18:26:13.121Z,81.31
2017-09-28T18:28:39.367Z,82.55
2017-09-28T18:31:05.595Z,81.80
2017-09-28T18:33:32.157Z,82.03
2017-09-28T18:35:58.479Z,81.15
2017-09-28T18:38:24.686Z,80.13
2017-09-28T18:40:50.882Z,80.33
2017-09-28T18:43:17.145Z,80.03
2017-09-28T18:45:43.366Z,80.80
2017-09-28T18:48:09.614Z,80.95
2017-09-28T18:50:35.798Z,80.74
2017-09-28T18:53:02.067Z,80.03
2017-09-28T18:55:28.250Z,79.51
2017-09-28T18:57:54.458Z,79.12
2017-09-28T19:00:20.682Z,78.05
2017-09-28T19:02:46.902Z,76.51
2017-09-28T19:05:13.141Z,76.75
2017-09-28T19:07:39.328Z,75.50
2017-09-28T19:10:05.967Z,73.89
2017-09-28T19:12:32.519Z,74.47
2017-09-28T19:14:58.849Z,72.15
2017-09-28T19:17:25.138Z,71.42
2017-09-28T19:19:51.415Z,70.90
2017-09-28T19:22:18.041Z,69.68
2017-09-28T19:24:44.395Z,70.76
2017-09-28T19:27:10.820Z,70.84
2017-09-28T19:29:37.055Z,71.31
2017-09-28T19:32:03.293Z,74.16
2017-09-28T19:34:29.601Z,75.75
2017-09-28T19:36:56.030Z,76.69
2017-09-28T19:39:22.578Z,77.08
2017-09-28T19:41:48.872Z,76.68
2017-09-28T19:44:16.282Z,76.99
2017-09-28T19:46:42.796Z,76.95
2017-09-28T19:49:09.083Z,76.60
2017-09-28T19:51:35.255Z,76.87
2017-09-28T19:54:01.555Z,75.47
2017-09-28T19:56:27.810Z,75.87
2017-09-28T19:58:54.008Z,75.10
2017-09-28T20:01:20.596Z,75.15
2017-09-28T20:03:46.930Z,75.60
2017-09-28T20:06:13.271Z,75.47
2017-09-28T20:08:39.445Z,75.40
2017-09-28T20:11:05.607Z,76.05
2017-09-28T20:13:32.276Z,75.95
2017-09-28T20:15:58.570Z,75.78
2017-09-28T20:18:25.831Z,75.74
2017-09-28T20:20:52.153Z,75.94
2017-09-28T20:23:18.376Z,76.24
2017-09-28T20:25:44.558Z,76.74
2017-09-28T20:28:10.755Z,77.01
2017-09-28T20:30:36.996Z,77.37
2017-09-28T20:33:03.321Z,77.93
2017-09-28T20:35:29.713Z,78.51
2017-09-28T20:37:55.993Z,79.14
2017-09-28T20:40:22.313Z,79.18
2017-09-28T20:42:48.583Z,79.94
2017-09-28T20:45:14.880Z,80.28
2017-09-28T20:47:41.217Z,80.34
2017-09-28T20:50:07.452Z,80.57
2017-09-28T20:52:33.676Z,80.42
2017-09-28T20:55:00.009Z,80.59
2017-09-28T20:57:26.328Z,80.70
2017-09-28T20:59:52.562Z,80.70
2017-09-28T21:02:18.865Z,80.55
2017-09-28T21:04:45.114Z,80.79
2017-09-28T21:07:11.344Z,80.71
2017-09-28T21:09:37.566Z,80.85
2017-09-28T21:12:03.807Z,80.68
2017-09-28T21:14:30.042Z,80.16
2017-09-28T21:16:56.268Z,79.61
2017-09-28T21:19:22.515Z,78.58
2017-09-28T21:21:48.834Z,79.55
2017-09-28T21:24:15.674Z,79.28
2017-09-28T21:26:41.899Z,79.39
2017-09-28T21:29:08.120Z,79.36
2017-09-28T21:31:34.361Z,79.52
2017-09-28T21:34:00.576Z,79.12
2017-09-28T21:36:26.817Z,78.87
2017-09-28T21:38:53.169Z,79.05
2017-09-28T21:41:19.393Z,79.21
2017-09-28T21:43:45.628Z,79.35
2017-09-28T21:46:11.839Z,79.12
2017-09-28T21:48:38.084Z,78.60
2017-09-28T21:51:04.306Z,78.40
2017-09-28T21:53:30.530Z,76.79
2017-09-28T21:55:56.748Z,77.27
2017-09-28T21:58:22.985Z,77.77
2017-09-28T22:00:49.217Z,77.76
2017-09-28T22:03:15.444Z,77.00
2017-09-28T22:05:41.683Z,77.48
2017-09-28T22:08:07.903Z,77.71
2017-09-28T22:10:34.122Z,76.67
2017-09-28T22:13:00.359Z,77.56
2017-09-28T22:15:26.582Z,79.02
2017-09-28T22:17:52.831Z,79.78
2017-09-28T22:20:19.063Z,79.81
2017-09-28T22:22:45.286Z,79.77
2017-09-28T22:25:11.518Z,79.82
2017-09-28T22:27:37.752Z,79.89
2017-09-28T22:30:04.001Z,79.34
2017-09-28T22:32:30.204Z,78.82
2017-09-28T22:34:56.428Z,78.93
2017-09-28T22:37:22.665Z,77.55
2017-09-28T22:39:48.916Z,79.07
2017-09-28T22:42:15.130Z,79.11
2017-09-28T22:44:41.374Z,77.11
2017-09-28T22:47:07.585Z,77.94
2017-09-28T22:49:33.821Z,77.57
2017-09-28T22:52:00.052Z,78.51
2017-09-28T22:54:26.288Z,78.73
2017-09-28T22:56:52.511Z,78.26
2017-09-28T22:59:18.732Z,77.94
2017-09-28T23:01:44.981Z,79.44
2017-09-28T23:04:11.193Z,79.47
2017-09-28T23:06:37.433Z,79.12
2017-09-28T23:09:03.652Z,78.22
2017-09-28T23:11:29.896Z,78.16
2017-09-28T23:13:56.117Z,78.39
2017-09-28T23:16:22.337Z,77.58
2017-09-28T23:18:48.572Z,77.82
2017-09-28T23:21:14.793Z,77.52
2017-09-28T23:23:41.038Z,77.83
2017-09-28T23:26:07.247Z,77.31
2017-09-28T23:28:33.499Z,76.15
2017-09-28T23:30:59.708Z,76.99
2017-09-28T23:33:25.943Z,76.56
2017-09-28T23:35:52.171Z,76.39
2017-09-28T23:38:18.399Z,77.53
2017-09-28T23:40:44.640Z,76.22
2017-09-28T23:43:10.858Z,76.01
2017-09-28T23:45:37.080Z,76.70
2017-09-28T23:48:03.334Z,75.45
2017-09-28T23:50:29.551Z,74.87
2017-09-28T23:52:55.780Z,75.36
2017-09-28T23:55:22.019Z,75.21
2017-09-28T23:57:48.249Z,74.75
